sensor_id;sensor_type;location;lat;lon;timestamp;temperature;humidity
17381;DHT22;8808;52.478;13.378;2023-04-25T00:01:45;10.20;99.90
17381;DHT22;8808;52.478;13.378;2023-04-25T00:04:12;10.10;99.90
17381;DHT22;8808;52.478;13.378;2023-04-25T00:06:39;10.20;99.90
17381;DHT22;8808;52.478;13.378;2023-04-25T00:09:07;10.00;99.90
17381;DHT22;8808;52.478;13.378;2023-04-25T00:11:35;10.10;99.90
17381;DHT22;8808;52.478;13.378;2023-04-25T00:14:03;10.10;99.90
17381;DHT22;8808;52.478;13.378;2023-04-25T00:16:30;10.10;99.90
17381;DHT22;8808;52.478;13.378;2023-04-25T00:18:59;10.20;99.90
17381;DHT22;8808;52.478;13.378;2023-04-25T00:21:27;10.10;99.90
17381;DHT22;8808;52.478;13.378;2023-04-25T00:23:54;10.10;99.90
17381;DHT22;8808;52.478;13.378;2023-04-25T00:26:22;10.10;99.90
17381;DHT22;8808;52.478;13.378;2023-04-25T00:28:50;10.10;99.90
17381;DHT22;8808;52.478;13.378;2023-04-25T00:31:17;10.20;99.90
17381;DHT22;8808;52.478;13.378;2023-04-25T00:33:44;10.20;99.90
17381;DHT22;8808;52.478;13.378;2023-04-25T00:36:11;10.10;99.90
17381;DHT22;8808;52.478;13.378;2023-04-25T00:38:38;10.10;99.90
17381;DHT22;8808;52.478;13.378;2023-04-25T00:41:07;10.10;99.90
17381;DHT22;8808;52.478;13.378;2023-04-25T00:43:36;10.10;99.90
17381;DHT22;8808;52.478;13.378;2023-04-25T00:46:03;10.10;99.90
17381;DHT22;8808;52.478;13.378;2023-04-25T00:48:30;10.10;99.90
17381;DHT22;8808;52.478;13.378;2023-04-25T00:50:58;10.10;99.90
17381;DHT22;8808;52.478;13.378;2023-04-25T00:53:27;10.20;99.90
17381;DHT22;8808;52.478;13.378;2023-04-25T00:55:54;10.10;99.90
17381;DHT22;8808;52.478;13.378;2023-04-25T00:58:22;10.10;99.90
17381;DHT22;8808;52.478;13.378;2023-04-25T01:03:33;10.20;99.90
17381;DHT22;8808;52.478;13.378;2023-04-25T01:06:02;10.20;99.90
17381;DHT22;8808;52.478;13.378;2023-04-25T01:08:29;10.10;99.90
17381;DHT22;8808;52.478;13.378;2023-04-25T01:10:56;10.20;99.90
17381;DHT22;8808;52.478;13.378;2023-04-25T01:13:23;10.10;99.90
17381;DHT22;8808;52.478;13.378;2023-04-25T01:15:50;10.20;99.90
17381;DHT22;8808;52.478;13.378;2023-04-25T01:18:18;10.00;99.90
17381;DHT22;8808;52.478;13.378;2023-04-25T01:20:50;10.10;99.90
17381;DHT22;8808;52.478;13.378;2023-04-25T01:23:19;10.00;99.90
17381;DHT22;8808;52.478;13.378;2023-04-25T01:25:47;10.00;99.90
17381;DHT22;8808;52.478;13.378;2023-04-25T01:28:14;10.10;99.90
17381;DHT22;8808;52.478;13.378;2023-04-25T01:30:42;10.10;99.90
17381;DHT22;8808;52.478;13.378;2023-04-25T01:33:09;10.00;99.90
17381;DHT22;8808;52.478;13.378;2023-04-25T01:35:36;10.00;99.90
17381;DHT22;8808;52.478;13.378;2023-04-25T01:38:03;10.10;99.90
17381;DHT22;8808;52.478;13.378;2023-04-25T01:40:33;10.10;99.90
17381;DHT22;8808;52.478;13.378;2023-04-25T01:43:01;10.00;99.90
17381;DHT22;8808;52.478;13.378;2023-04-25T01:45:28;10.00;99.90
17381;DHT22;8808;52.478;13.378;2023-04-25T01:47:55;10.00;99.90
17381;DHT22;8808;52.478;13.378;2023-04-25T01:50:25;10.10;99.90
17381;DHT22;8808;52.478;13.378;2023-04-25T01:52:53;10.10;99.90
17381;DHT22;8808;52.478;13.378;2023-04-25T01:55:20;10.00;99.90
17381;DHT22;8808;52.478;13.378;2023-04-25T01:57:48;10.00;99.90
17381;DHT22;8808;52.478;13.378;2023-04-25T02:00:16;10.00;99.90
17381;DHT22;8808;52.478;13.378;2023-04-25T02:02:42;10.00;99.90
17381;DHT22;8808;52.478;13.378;2023-04-25T02:05:09;10.00;99.90
17381;DHT22;8808;52.478;13.378;2023-04-25T02:07:36;10.00;99.90
17381;DHT22;8808;52.478;13.378;2023-04-25T02:10:04;10.00;99.90
17381;DHT22;8808;52.478;13.378;2023-04-25T02:12:31;10.00;99.90
17381;DHT22;8808;52.478;13.378;2023-04-25T02:15:00;10.00;99.90
17381;DHT22;8808;52.478;13.378;2023-04-25T02:17:27;10.00;99.90
17381;DHT22;8808;52.478;13.378;2023-04-25T02:19:54;10.00;99.90
17381;DHT22;8808;52.478;13.378;2023-04-25T02:22:21;10.00;99.90
17381;DHT22;8808;52.478;13.378;2023-04-25T02:24:48;10.00;99.90
17381;DHT22;8808;52.478;13.378;2023-04-25T02:27:15;10.00;99.90
17381;DHT22;8808;52.478;13.378;2023-04-25T02:29:42;9.90;99.90
17381;DHT22;8808;52.478;13.378;2023-04-25T02:32:10;10.00;99.90
17381;DHT22;8808;52.478;13.378;2023-04-25T02:34:37;10.00;99.90
17381;DHT22;8808;52.478;13.378;2023-04-25T02:37:04;9.90;99.90
17381;DHT22;8808;52.478;13.378;2023-04-25T02:39:31;10.00;99.90
17381;DHT22;8808;52.478;13.378;2023-04-25T02:41:58;9.90;99.90
17381;DHT22;8808;52.478;13.378;2023-04-25T02:44:26;9.90;99.90
17381;DHT22;8808;52.478;13.378;2023-04-25T02:46:53;9.90;99.90
17381;DHT22;8808;52.478;13.378;2023-04-25T02:49:21;9.80;99.90
17381;DHT22;8808;52.478;13.378;2023-04-25T02:51:48;9.90;99.90
17381;DHT22;8808;52.478;13.378;2023-04-25T02:54:16;9.90;99.90
17381;DHT22;8808;52.478;13.378;2023-04-25T02:56:43;9.80;99.90
17381;DHT22;8808;52.478;13.378;2023-04-25T02:59:09;9.70;99.90
17381;DHT22;8808;52.478;13.378;2023-04-25T03:01:36;9.90;99.90
17381;DHT22;8808;52.478;13.378;2023-04-25T03:04:03;9.80;99.90
17381;DHT22;8808;52.478;13.378;2023-04-25T03:06:32;9.80;99.90
17381;DHT22;8808;52.478;13.378;2023-04-25T03:08:59;9.80;99.90
17381;DHT22;8808;52.478;13.378;2023-04-25T03:11:26;9.80;99.90
17381;DHT22;8808;52.478;13.378;2023-04-25T03:13:53;9.70;99.90
17381;DHT22;8808;52.478;13.378;2023-04-25T03:16:20;9.80;99.90
17381;DHT22;8808;52.478;13.378;2023-04-25T03:18:47;9.70;99.90
17381;DHT22;8808;52.478;13.378;2023-04-25T03:21:15;9.70;99.90
17381;DHT22;8808;52.478;13.378;2023-04-25T03:23:44;9.80;99.90
17381;DHT22;8808;52.478;13.378;2023-04-25T03:26:11;9.80;99.90
17381;DHT22;8808;52.478;13.378;2023-04-25T03:28:38;9.70;99.90
17381;DHT22;8808;52.478;13.378;2023-04-25T03:31:05;9.80;99.90
17381;DHT22;8808;52.478;13.378;2023-04-25T03:33:32;9.70;99.90
17381;DHT22;8808;52.478;13.378;2023-04-25T03:35:59;9.70;99.90
17381;DHT22;8808;52.478;13.378;2023-04-25T03:38:26;9.70;99.90
17381;DHT22;8808;52.478;13.378;2023-04-25T03:40:54;9.70;99.90
17381;DHT22;8808;52.478;13.378;2023-04-25T03:43:22;9.70;99.90
17381;DHT22;8808;52.478;13.378;2023-04-25T03:45:49;9.60;99.90
17381;DHT22;8808;52.478;13.378;2023-04-25T03:48:17;9.60;99.90
17381;DHT22;8808;52.478;13.378;2023-04-25T03:50:45;9.60;99.90
17381;DHT22;8808;52.478;13.378;2023-04-25T03:53:12;9.60;99.90
17381;DHT22;8808;52.478;13.378;2023-04-25T03:55:39;9.60;99.90
17381;DHT22;8808;52.478;13.378;2023-04-25T03:58:07;9.50;99.90
17381;DHT22;8808;52.478;13.378;2023-04-25T04:00:34;9.60;99.90
17381;DHT22;8808;52.478;13.378;2023-04-25T04:03:02;9.60;99.90
17381;DHT22;8808;52.478;13.378;2023-04-25T04:05:29;9.50;99.90
17381;DHT22;8808;52.478;13.378;2023-04-25T04:07:56;9.50;99.90
17381;DHT22;8808;52.478;13.378;2023-04-25T04:10:23;9.50;99.90
17381;DHT22;8808;52.478;13.378;2023-04-25T04:12:51;9.50;99.90
17381;DHT22;8808;52.478;13.378;2023-04-25T04:15:20;9.40;99.90
17381;DHT22;8808;52.478;13.378;2023-04-25T04:17:48;9.50;99.90
17381;DHT22;8808;52.478;13.378;2023-04-25T04:20:15;9.50;99.90
17381;DHT22;8808;52.478;13.378;2023-04-25T04:22:42;9.50;99.90
17381;DHT22;8808;52.478;13.378;2023-04-25T04:25:09;9.50;99.90
17381;DHT22;8808;52.478;13.378;2023-04-25T04:27:37;9.30;99.90
17381;DHT22;8808;52.478;13.378;2023-04-25T04:30:06;9.40;99.90
17381;DHT22;8808;52.478;13.378;2023-04-25T04:32:34;9.40;99.90
17381;DHT22;8808;52.478;13.378;2023-04-25T04:35:03;9.50;99.90
17381;DHT22;8808;52.478;13.378;2023-04-25T04:37:32;9.50;99.90
17381;DHT22;8808;52.478;13.378;2023-04-25T04:39:59;9.50;99.90
17381;DHT22;8808;52.478;13.378;2023-04-25T04:42:30;9.50;99.90
17381;DHT22;8808;52.478;13.378;2023-04-25T04:44:58;9.60;99.90
17381;DHT22;8808;52.478;13.378;2023-04-25T04:47:27;9.70;99.90
17381;DHT22;8808;52.478;13.378;2023-04-25T04:49:57;9.60;99.90
17381;DHT22;8808;52.478;13.378;2023-04-25T04:52:24;9.70;99.90
17381;DHT22;8808;52.478;13.378;2023-04-25T04:54:51;9.70;99.90
17381;DHT22;8808;52.478;13.378;2023-04-25T04:57:18;9.70;99.90
17381;DHT22;8808;52.478;13.378;2023-04-25T04:59:45;9.80;99.90
17381;DHT22;8808;52.478;13.378;2023-04-25T05:02:12;9.70;99.90
17381;DHT22;8808;52.478;13.378;2023-04-25T05:04:39;9.60;99.90
17381;DHT22;8808;52.478;13.378;2023-04-25T05:07:07;9.70;99.90
17381;DHT22;8808;52.478;13.378;2023-04-25T05:09:34;9.60;99.90
17381;DHT22;8808;52.478;13.378;2023-04-25T05:12:01;9.70;99.90
17381;DHT22;8808;52.478;13.378;2023-04-25T05:14:29;9.70;99.90
17381;DHT22;8808;52.478;13.378;2023-04-25T05:16:58;9.70;99.90
17381;DHT22;8808;52.478;13.378;2023-04-25T05:19:25;9.70;99.90
17381;DHT22;8808;52.478;13.378;2023-04-25T05:21:52;9.80;99.90
17381;DHT22;8808;52.478;13.378;2023-04-25T05:24:21;9.80;99.90
17381;DHT22;8808;52.478;13.378;2023-04-25T05:26:48;9.80;99.90
17381;DHT22;8808;52.478;13.378;2023-04-25T05:29:15;9.70;99.90
17381;DHT22;8808;52.478;13.378;2023-04-25T05:31:41;9.80;99.90
17381;DHT22;8808;52.478;13.378;2023-04-25T05:34:08;9.80;99.90
17381;DHT22;8808;52.478;13.378;2023-04-25T05:36:35;9.90;99.90
17381;DHT22;8808;52.478;13.378;2023-04-25T05:39:02;9.80;99.90
17381;DHT22;8808;52.478;13.378;2023-04-25T05:41:31;10.70;99.90
17381;DHT22;8808;52.478;13.378;2023-04-25T05:43:58;10.10;99.90
17381;DHT22;8808;52.478;13.378;2023-04-25T05:46:25;9.90;99.90
17381;DHT22;8808;52.478;13.378;2023-04-25T05:48:52;9.90;99.90
17381;DHT22;8808;52.478;13.378;2023-04-25T05:51:19;9.90;99.90
17381;DHT22;8808;52.478;13.378;2023-04-25T05:53:46;9.90;99.90
17381;DHT22;8808;52.478;13.378;2023-04-25T05:56:13;10.00;99.90
17381;DHT22;8808;52.478;13.378;2023-04-25T05:58:41;9.90;99.90
17381;DHT22;8808;52.478;13.378;2023-04-25T06:01:08;9.90;99.90
17381;DHT22;8808;52.478;13.378;2023-04-25T06:03:35;9.90;99.90
17381;DHT22;8808;52.478;13.378;2023-04-25T06:06:03;9.90;99.90
17381;DHT22;8808;52.478;13.378;2023-04-25T06:08:31;9.90;99.90
17381;DHT22;8808;52.478;13.378;2023-04-25T06:10:58;9.90;99.90
17381;DHT22;8808;52.478;13.378;2023-04-25T06:13:25;9.90;99.90
17381;DHT22;8808;52.478;13.378;2023-04-25T06:15:53;9.90;99.90
17381;DHT22;8808;52.478;13.378;2023-04-25T06:18:20;9.80;99.90
17381;DHT22;8808;52.478;13.378;2023-04-25T06:20:47;9.80;99.90
17381;DHT22;8808;52.478;13.378;2023-04-25T06:23:14;9.90;99.90
17381;DHT22;8808;52.478;13.378;2023-04-25T06:25:41;10.00;99.90
17381;DHT22;8808;52.478;13.378;2023-04-25T06:28:08;9.90;99.90
17381;DHT22;8808;52.478;13.378;2023-04-25T06:30:34;9.90;99.90
17381;DHT22;8808;52.478;13.378;2023-04-25T06:33:03;10.00;99.90
17381;DHT22;8808;52.478;13.378;2023-04-25T06:35:30;10.00;99.90
17381;DHT22;8808;52.478;13.378;2023-04-25T06:37:57;10.00;99.90
17381;DHT22;8808;52.478;13.378;2023-04-25T06:40:24;10.00;99.90
17381;DHT22;8808;52.478;13.378;2023-04-25T06:42:51;9.90;99.90
17381;DHT22;8808;52.478;13.378;2023-04-25T06:45:18;10.00;99.90
17381;DHT22;8808;52.478;13.378;2023-04-25T06:47:45;10.10;99.90
17381;DHT22;8808;52.478;13.378;2023-04-25T06:50:13;9.80;99.90
17381;DHT22;8808;52.478;13.378;2023-04-25T06:52:40;10.00;99.90
17381;DHT22;8808;52.478;13.378;2023-04-25T06:55:07;10.10;99.90
17381;DHT22;8808;52.478;13.378;2023-04-25T06:57:34;10.10;99.90
17381;DHT22;8808;52.478;13.378;2023-04-25T07:00:01;10.10;99.90
17381;DHT22;8808;52.478;13.378;2023-04-25T07:02:30;10.10;99.90
17381;DHT22;8808;52.478;13.378;2023-04-25T07:04:57;10.20;99.90
17381;DHT22;8808;52.478;13.378;2023-04-25T07:07:26;10.10;99.90
17381;DHT22;8808;52.478;13.378;2023-04-25T07:09:53;10.00;99.90
17381;DHT22;8808;52.478;13.378;2023-04-25T07:12:20;10.00;99.90
17381;DHT22;8808;52.478;13.378;2023-04-25T07:14:47;9.90;99.90
17381;DHT22;8808;52.478;13.378;2023-04-25T07:17:14;9.90;99.90
17381;DHT22;8808;52.478;13.378;2023-04-25T07:19:42;9.80;99.90
17381;DHT22;8808;52.478;13.378;2023-04-25T07:22:09;9.80;99.90
17381;DHT22;8808;52.478;13.378;2023-04-25T07:24:37;9.80;99.90
17381;DHT22;8808;52.478;13.378;2023-04-25T07:27:04;9.70;99.90
17381;DHT22;8808;52.478;13.378;2023-04-25T07:29:31;9.60;99.90
17381;DHT22;8808;52.478;13.378;2023-04-25T07:32:02;9.50;99.90
17381;DHT22;8808;52.478;13.378;2023-04-25T07:34:29;9.60;99.90
17381;DHT22;8808;52.478;13.378;2023-04-25T07:36:56;9.60;99.90
17381;DHT22;8808;52.478;13.378;2023-04-25T07:39:25;9.60;99.90
17381;DHT22;8808;52.478;13.378;2023-04-25T07:41:53;9.50;99.90
17381;DHT22;8808;52.478;13.378;2023-04-25T07:44:20;9.70;99.90
17381;DHT22;8808;52.478;13.378;2023-04-25T07:46:47;9.80;99.90
17381;DHT22;8808;52.478;13.378;2023-04-25T07:49:14;9.70;99.90
17381;DHT22;8808;52.478;13.378;2023-04-25T07:51:41;10.00;99.90
17381;DHT22;8808;52.478;13.378;2023-04-25T07:54:09;9.90;99.90
17381;DHT22;8808;52.478;13.378;2023-04-25T07:56:36;9.90;99.90
17381;DHT22;8808;52.478;13.378;2023-04-25T07:59:04;9.90;99.90
17381;DHT22;8808;52.478;13.378;2023-04-25T08:01:31;9.90;99.90
17381;DHT22;8808;52.478;13.378;2023-04-25T08:03:58;9.80;99.90
17381;DHT22;8808;52.478;13.378;2023-04-25T08:06:25;9.80;99.90
17381;DHT22;8808;52.478;13.378;2023-04-25T08:08:52;9.80;99.90
17381;DHT22;8808;52.478;13.378;2023-04-25T08:11:20;9.80;99.90
17381;DHT22;8808;52.478;13.378;2023-04-25T08:13:47;9.90;99.90
17381;DHT22;8808;52.478;13.378;2023-04-25T08:16:15;9.90;99.90
17381;DHT22;8808;52.478;13.378;2023-04-25T08:18:42;10.00;99.90
17381;DHT22;8808;52.478;13.378;2023-04-25T08:21:09;9.90;99.90
17381;DHT22;8808;52.478;13.378;2023-04-25T08:23:37;10.10;99.90
17381;DHT22;8808;52.478;13.378;2023-04-25T08:26:04;10.20;99.90
17381;DHT22;8808;52.478;13.378;2023-04-25T08:28:31;10.60;99.90
17381;DHT22;8808;52.478;13.378;2023-04-25T08:30:58;11.00;99.90
17381;DHT22;8808;52.478;13.378;2023-04-25T08:33:26;11.00;99.90
17381;DHT22;8808;52.478;13.378;2023-04-25T08:35:53;11.10;99.90
17381;DHT22;8808;52.478;13.378;2023-04-25T08:38:20;11.10;99.90
17381;DHT22;8808;52.478;13.378;2023-04-25T08:40:49;10.70;99.90
17381;DHT22;8808;52.478;13.378;2023-04-25T08:43:18;10.60;99.90
17381;DHT22;8808;52.478;13.378;2023-04-25T08:45:46;10.50;99.90
17381;DHT22;8808;52.478;13.378;2023-04-25T08:48:14;10.50;99.90
17381;DHT22;8808;52.478;13.378;2023-04-25T08:50:46;10.50;99.90
17381;DHT22;8808;52.478;13.378;2023-04-25T08:53:16;10.60;99.90
17381;DHT22;8808;52.478;13.378;2023-04-25T08:55:46;10.70;99.90
17381;DHT22;8808;52.478;13.378;2023-04-25T08:58:13;11.30;99.90
17381;DHT22;8808;52.478;13.378;2023-04-25T09:00:40;11.90;99.90
17381;DHT22;8808;52.478;13.378;2023-04-25T09:03:07;12.10;99.90
17381;DHT22;8808;52.478;13.378;2023-04-25T09:05:34;12.40;99.90
17381;DHT22;8808;52.478;13.378;2023-04-25T09:08:03;12.80;99.90
17381;DHT22;8808;52.478;13.378;2023-04-25T09:10:30;12.80;99.90
17381;DHT22;8808;52.478;13.378;2023-04-25T09:13:04;13.20;99.90
17381;DHT22;8808;52.478;13.378;2023-04-25T09:15:32;13.20;98.20
17381;DHT22;8808;52.478;13.378;2023-04-25T09:17:59;13.20;96.10
17381;DHT22;8808;52.478;13.378;2023-04-25T09:20:27;13.10;95.10
17381;DHT22;8808;52.478;13.378;2023-04-25T09:23:05;13.00;96.20
17381;DHT22;8808;52.478;13.378;2023-04-25T09:25:36;13.30;96.30
17381;DHT22;8808;52.478;13.378;2023-04-25T09:28:05;13.60;96.80
17381;DHT22;8808;52.478;13.378;2023-04-25T09:30:34;13.20;94.60
17381;DHT22;8808;52.478;13.378;2023-04-25T09:33:05;16.90;90.40
17381;DHT22;8808;52.478;13.378;2023-04-25T09:35:35;14.60;91.60
17381;DHT22;8808;52.478;13.378;2023-04-25T09:38:09;13.50;91.30
17381;DHT22;8808;52.478;13.378;2023-04-25T09:40:39;12.80;92.40
17381;DHT22;8808;52.478;13.378;2023-04-25T09:43:09;12.50;92.60
17381;DHT22;8808;52.478;13.378;2023-04-25T09:45:46;12.40;93.10
17381;DHT22;8808;52.478;13.378;2023-04-25T09:48:17;12.10;92.30
17381;DHT22;8808;52.478;13.378;2023-04-25T09:50:45;12.00;93.10
17381;DHT22;8808;52.478;13.378;2023-04-25T09:53:13;12.10;93.60
17381;DHT22;8808;52.478;13.378;2023-04-25T09:55:41;12.10;93.20
17381;DHT22;8808;52.478;13.378;2023-04-25T09:58:11;12.40;92.60
17381;DHT22;8808;52.478;13.378;2023-04-25T10:00:40;12.70;92.40
17381;DHT22;8808;52.478;13.378;2023-04-25T10:03:08;12.40;93.10
17381;DHT22;8808;52.478;13.378;2023-04-25T10:05:35;12.40;93.60
17381;DHT22;8808;52.478;13.378;2023-04-25T10:08:04;12.80;92.90
17381;DHT22;8808;52.478;13.378;2023-04-25T10:10:33;12.80;91.30
17381;DHT22;8808;52.478;13.378;2023-04-25T10:13:04;12.50;91.80
17381;DHT22;8808;52.478;13.378;2023-04-25T10:15:34;12.30;90.90
17381;DHT22;8808;52.478;13.378;2023-04-25T10:18:02;12.20;91.10
17381;DHT22;8808;52.478;13.378;2023-04-25T10:20:29;12.50;91.40
17381;DHT22;8808;52.478;13.378;2023-04-25T10:23:03;12.50;90.50
17381;DHT22;8808;52.478;13.378;2023-04-25T10:25:30;12.40;90.20
17381;DHT22;8808;52.478;13.378;2023-04-25T10:28:00;12.30;90.90
17381;DHT22;8808;52.478;13.378;2023-04-25T10:30:29;12.30;90.50
17381;DHT22;8808;52.478;13.378;2023-04-25T10:32:56;12.20;90.20
17381;DHT22;8808;52.478;13.378;2023-04-25T10:35:26;12.10;89.20
17381;DHT22;8808;52.478;13.378;2023-04-25T10:37:58;12.20;90.70
17381;DHT22;8808;52.478;13.378;2023-04-25T10:40:26;12.30;90.10
17381;DHT22;8808;52.478;13.378;2023-04-25T10:42:53;12.20;90.30
17381;DHT22;8808;52.478;13.378;2023-04-25T10:45:22;12.10;90.50
17381;DHT22;8808;52.478;13.378;2023-04-25T10:47:50;12.10;89.80
17381;DHT22;8808;52.478;13.378;2023-04-25T10:50:17;12.00;90.50
17381;DHT22;8808;52.478;13.378;2023-04-25T10:52:44;12.00;91.10
17381;DHT22;8808;52.478;13.378;2023-04-25T10:55:11;12.00;91.50
17381;DHT22;8808;52.478;13.378;2023-04-25T10:57:40;12.00;90.40
17381;DHT22;8808;52.478;13.378;2023-04-25T11:00:10;11.80;89.50
17381;DHT22;8808;52.478;13.378;2023-04-25T11:02:40;11.70;90.80
17381;DHT22;8808;52.478;13.378;2023-04-25T11:05:09;11.90;91.10
17381;DHT22;8808;52.478;13.378;2023-04-25T11:07:43;12.30;90.80
17381;DHT22;8808;52.478;13.378;2023-04-25T11:10:11;12.30;90.20
17381;DHT22;8808;52.478;13.378;2023-04-25T11:12:38;12.10;90.10
17381;DHT22;8808;52.478;13.378;2023-04-25T11:15:06;12.10;90.60
17381;DHT22;8808;52.478;13.378;2023-04-25T11:17:34;12.10;91.00
17381;DHT22;8808;52.478;13.378;2023-04-25T11:20:02;12.00;88.50
17381;DHT22;8808;52.478;13.378;2023-04-25T11:22:34;11.70;88.60
17381;DHT22;8808;52.478;13.378;2023-04-25T11:25:05;11.60;90.10
17381;DHT22;8808;52.478;13.378;2023-04-25T11:27:32;11.60;90.70
17381;DHT22;8808;52.478;13.378;2023-04-25T11:30:10;11.50;90.40
17381;DHT22;8808;52.478;13.378;2023-04-25T11:32:39;11.30;89.60
17381;DHT22;8808;52.478;13.378;2023-04-25T11:35:08;11.20;87.90
17381;DHT22;8808;52.478;13.378;2023-04-25T11:37:35;11.20;88.70
17381;DHT22;8808;52.478;13.378;2023-04-25T11:40:04;11.30;86.50
17381;DHT22;8808;52.478;13.378;2023-04-25T11:42:32;11.30;84.70
17381;DHT22;8808;52.478;13.378;2023-04-25T11:44:59;11.20;85.80
17381;DHT22;8808;52.478;13.378;2023-04-25T11:47:30;11.30;85.00
17381;DHT22;8808;52.478;13.378;2023-04-25T11:49:58;11.20;86.00
17381;DHT22;8808;52.478;13.378;2023-04-25T11:52:37;11.40;86.90
17381;DHT22;8808;52.478;13.378;2023-04-25T11:55:05;11.40;87.60
17381;DHT22;8808;52.478;13.378;2023-04-25T11:57:33;11.40;85.30
17381;DHT22;8808;52.478;13.378;2023-04-25T12:00:10;11.60;85.90
17381;DHT22;8808;52.478;13.378;2023-04-25T12:02:40;11.60;86.20
17381;DHT22;8808;52.478;13.378;2023-04-25T12:05:08;11.80;84.50
17381;DHT22;8808;52.478;13.378;2023-04-25T12:07:37;12.00;85.40
17381;DHT22;8808;52.478;13.378;2023-04-25T12:10:05;12.20;90.10
17381;DHT22;8808;52.478;13.378;2023-04-25T12:12:33;15.00;91.40
17381;DHT22;8808;52.478;13.378;2023-04-25T12:15:08;13.10;86.30
17381;DHT22;8808;52.478;13.378;2023-04-25T12:17:36;12.30;85.10
17381;DHT22;8808;52.478;13.378;2023-04-25T12:20:07;11.80;85.40
17381;DHT22;8808;52.478;13.378;2023-04-25T12:22:35;11.80;85.60
17381;DHT22;8808;52.478;13.378;2023-04-25T12:25:05;11.90;84.40
17381;DHT22;8808;52.478;13.378;2023-04-25T12:27:33;12.20;83.40
17381;DHT22;8808;52.478;13.378;2023-04-25T12:30:01;11.90;83.40
17381;DHT22;8808;52.478;13.378;2023-04-25T12:32:29;11.90;83.30
17381;DHT22;8808;52.478;13.378;2023-04-25T12:34:56;12.00;81.70
17381;DHT22;8808;52.478;13.378;2023-04-25T12:37:23;12.20;81.00
17381;DHT22;8808;52.478;13.378;2023-04-25T12:39:50;12.20;80.90
17381;DHT22;8808;52.478;13.378;2023-04-25T12:42:18;12.30;81.40
17381;DHT22;8808;52.478;13.378;2023-04-25T12:44:45;12.60;88.60
17381;DHT22;8808;52.478;13.378;2023-04-25T12:47:13;12.90;82.90
17381;DHT22;8808;52.478;13.378;2023-04-25T12:49:40;12.80;80.50
17381;DHT22;8808;52.478;13.378;2023-04-25T12:52:07;12.40;82.60
17381;DHT22;8808;52.478;13.378;2023-04-25T12:54:34;12.30;82.10
17381;DHT22;8808;52.478;13.378;2023-04-25T12:57:01;12.10;84.20
17381;DHT22;8808;52.478;13.378;2023-04-25T12:59:30;12.10;83.00
17381;DHT22;8808;52.478;13.378;2023-04-25T13:01:57;12.00;84.40
17381;DHT22;8808;52.478;13.378;2023-04-25T13:04:24;11.90;84.80
17381;DHT22;8808;52.478;13.378;2023-04-25T13:06:51;11.80;85.80
17381;DHT22;8808;52.478;13.378;2023-04-25T13:09:18;11.90;85.60
17381;DHT22;8808;52.478;13.378;2023-04-25T13:11:46;12.10;86.50
17381;DHT22;8808;52.478;13.378;2023-04-25T13:14:13;11.90;83.20
17381;DHT22;8808;52.478;13.378;2023-04-25T13:16:42;12.00;82.80
17381;DHT22;8808;52.478;13.378;2023-04-25T13:19:09;12.40;81.40
17381;DHT22;8808;52.478;13.378;2023-04-25T13:21:37;12.80;82.80
17381;DHT22;8808;52.478;13.378;2023-04-25T13:24:04;12.50;81.20
17381;DHT22;8808;52.478;13.378;2023-04-25T13:26:31;12.20;79.00
17381;DHT22;8808;52.478;13.378;2023-04-25T13:28:58;12.10;82.40
17381;DHT22;8808;52.478;13.378;2023-04-25T13:31:26;12.30;81.00
17381;DHT22;8808;52.478;13.378;2023-04-25T13:33:54;12.20;81.30
17381;DHT22;8808;52.478;13.378;2023-04-25T13:36:21;12.50;82.00
17381;DHT22;8808;52.478;13.378;2023-04-25T13:38:48;12.20;82.60
17381;DHT22;8808;52.478;13.378;2023-04-25T13:41:15;12.20;83.00
17381;DHT22;8808;52.478;13.378;2023-04-25T13:43:45;12.20;85.70
17381;DHT22;8808;52.478;13.378;2023-04-25T13:46:13;12.30;82.40
17381;DHT22;8808;52.478;13.378;2023-04-25T13:48:41;12.20;83.10
17381;DHT22;8808;52.478;13.378;2023-04-25T13:51:14;12.20;82.90
17381;DHT22;8808;52.478;13.378;2023-04-25T13:53:42;12.20;83.90
17381;DHT22;8808;52.478;13.378;2023-04-25T13:56:09;12.50;84.00
17381;DHT22;8808;52.478;13.378;2023-04-25T13:58:37;12.40;85.10
17381;DHT22;8808;52.478;13.378;2023-04-25T14:01:04;12.30;83.40
17381;DHT22;8808;52.478;13.378;2023-04-25T14:03:31;12.20;83.30
17381;DHT22;8808;52.478;13.378;2023-04-25T14:05:58;12.10;84.40
17381;DHT22;8808;52.478;13.378;2023-04-25T14:08:27;12.10;85.40
17381;DHT22;8808;52.478;13.378;2023-04-25T14:10:54;11.90;84.70
17381;DHT22;8808;52.478;13.378;2023-04-25T14:13:21;11.80;84.70
17381;DHT22;8808;52.478;13.378;2023-04-25T14:15:49;11.90;84.40
17381;DHT22;8808;52.478;13.378;2023-04-25T14:18:17;11.70;87.30
17381;DHT22;8808;52.478;13.378;2023-04-25T14:20:44;11.70;85.20
17381;DHT22;8808;52.478;13.378;2023-04-25T14:23:11;11.60;85.40
17381;DHT22;8808;52.478;13.378;2023-04-25T14:25:40;11.40;81.90
17381;DHT22;8808;52.478;13.378;2023-04-25T14:28:08;11.20;84.00
17381;DHT22;8808;52.478;13.378;2023-04-25T14:30:35;11.40;84.20
17381;DHT22;8808;52.478;13.378;2023-04-25T14:33:02;11.30;83.60
17381;DHT22;8808;52.478;13.378;2023-04-25T14:35:30;11.30;85.60
17381;DHT22;8808;52.478;13.378;2023-04-25T14:37:56;11.40;84.00
17381;DHT22;8808;52.478;13.378;2023-04-25T14:40:23;11.30;82.50
17381;DHT22;8808;52.478;13.378;2023-04-25T14:42:52;11.40;85.00
17381;DHT22;8808;52.478;13.378;2023-04-25T14:45:19;11.50;84.60
17381;DHT22;8808;52.478;13.378;2023-04-25T14:47:46;11.50;85.80
17381;DHT22;8808;52.478;13.378;2023-04-25T14:50:13;11.70;85.60
17381;DHT22;8808;52.478;13.378;2023-04-25T14:52:40;11.50;83.70
17381;DHT22;8808;52.478;13.378;2023-04-25T14:55:07;11.40;86.10
17381;DHT22;8808;52.478;13.378;2023-04-25T14:57:35;11.30;84.10
17381;DHT22;8808;52.478;13.378;2023-04-25T15:00:04;11.30;84.90
17381;DHT22;8808;52.478;13.378;2023-04-25T15:02:34;11.30;86.20
17381;DHT22;8808;52.478;13.378;2023-04-25T15:05:01;11.30;86.00
17381;DHT22;8808;52.478;13.378;2023-04-25T15:07:29;11.30;88.10
17381;DHT22;8808;52.478;13.378;2023-04-25T15:09:56;11.30;87.90
17381;DHT22;8808;52.478;13.378;2023-04-25T15:12:23;11.30;88.00
17381;DHT22;8808;52.478;13.378;2023-04-25T15:14:53;11.30;88.20
17381;DHT22;8808;52.478;13.378;2023-04-25T15:17:22;11.20;87.70
17381;DHT22;8808;52.478;13.378;2023-04-25T15:19:49;11.20;88.00
17381;DHT22;8808;52.478;13.378;2023-04-25T15:22:16;11.10;88.40
17381;DHT22;8808;52.478;13.378;2023-04-25T15:24:43;11.20;88.40
17381;DHT22;8808;52.478;13.378;2023-04-25T15:27:10;11.10;88.50
17381;DHT22;8808;52.478;13.378;2023-04-25T15:29:38;11.20;88.70
17381;DHT22;8808;52.478;13.378;2023-04-25T15:32:05;11.30;87.60
17381;DHT22;8808;52.478;13.378;2023-04-25T15:34:34;11.20;87.80
17381;DHT22;8808;52.478;13.378;2023-04-25T15:37:01;11.30;87.80
17381;DHT22;8808;52.478;13.378;2023-04-25T15:39:27;11.20;85.70
17381;DHT22;8808;52.478;13.378;2023-04-25T15:41:54;11.10;87.50